Bedford, PA

5:49 AM EST on January 21, 2017 (GMT -0500)
Bedford Springs | | Change Station
Active Advisory: Dense Fog Advisory

Elev 1138 ft 40.01 °N, 78.52 °W | Updated 3 minutes ago

Fog
Fog
39.8 °F
Feels Like 40 °F
N
0.0
Wind Variable Wind from ESE
Gusts 0.0 mph

Today
High -- | Low -- °F
--% Chance of Precip.
Yesterday
High -- | Low -- °F
Precip. -- in
Pressure 29.87 in
Visibility 0.2 miles
Clouds Overcast 300 ft
Windchill 40 °F
Dew Point 39 °F
Humidity 97%
Rainfall 0.00 in
Snow Depth Not available.
7:30 AM 5:20 PM
Last Quarter, 36% visible
METAR KHMZ 211035Z AUTO 00000KT 1/4SM FG OVC003 04/04 A2987 RMK AO2 T00400036
Pressure 29.87 in
Visibility 0.2 miles
Clouds Overcast 300 ft
Windchill 40 °F
Dew Point 39 °F
Humidity 97%
Rainfall 0.00 in
Snow Depth Not available.
7:30 AM 5:20 PM
Last Quarter, 36% visible
METAR KHMZ 211035Z AUTO 00000KT 1/4SM FG OVC003 04/04 A2987 RMK AO2 T00400036

Get Your Daily Forecast Email!

Thanks for signing up!

Be on the lookout for a verification email in your inbox.

You'll start receiving the daily forecast at 8 AM.

×

10-Day Weather Forecast

Almanac

Astronomy

Jan. 21, 2017 Rise Set
Actual Time
Civil Twilight
Nautical Twilight
Astronomical Twilight
Moon
Length of Visible Light
Length of Day
Tomorrow will be .
, % of the Moon is Illuminated

Today's Extremes

State Highs State Lows

Community

WunderPhotos

Upload Photos

1,962,540 photos uploaded!

WunderBlog® & News

Nearby

Air Quality

  Air Quality AQ Index Pollutant
Not available.

Snow Depth

Station Depth Elevation

Earthquake Activity

City Distance Mag. Time & Date
Minimum magnitude displayed is 2.5.

Coastal Water Temperatures

Place Temperature

Stations

Nearby Weather Stations

Station Location Temp. Windchill Dew Point Humidity Wind Precip. Elev Updated Type
                   

Watches & Warnings

Dense Fog Advisory
Issued: 1:49 AM EST Jan. 21, 2017 – National Weather Service

... Dense fog advisory in effect until 8 am EST this morning...

The National Weather Service in State College has issued a dense
fog advisory... which is in effect until 8 am EST this morning.

* Timing... overnight through shortly after sunrise Saturday.

* Visibilities... near zero.

* Impacts... poor driving conditions as a result of greatly
reduced and rapidly fluctuating visibility.

Precautionary/preparedness actions...

Motorists are advised to slow down... use low beam headlights and
keep a safe following distance from the vehicle in front of you.
Consider allowing extra time to reach your destination. Go to
weather.Gov/fog for more information on fog safety.